Time;durP1;ratioP1;P1;durP2;ratioP2;P2;SDS_P1;SDS_P2;PMS_P1;PMS_P2;Temp;Humidity;BMP_temperature;BMP_pressure;BME280_temperature;BME280_humidity;BME280_pressure;Samples;Min_cycle;Max_cycle;Signal;HPM_P1;HPM_P2
2023/03/11 00:01:44;;;;;;;14.03;8.97;;;;;;;13.06;100.00;93054.66;5032779;28;20431;-73
2023/03/11 00:04:10;;;;;;;20.17;11.63;;;;;;;13.03;100.00;93055.84;5051370;28;20514;-73
2023/03/11 00:06:37;;;;;;;16.70;9.63;;;;;;;13.01;100.00;93058.69;5052141;28;20444;-73
2023/03/11 00:09:05;;;;;;;11.10;9.00;;;;;;;13.03;100.00;93069.03;5016500;28;20462;-73
2023/03/11 00:11:32;;;;;;;28.43;14.27;;;;;;;12.99;100.00;93075.63;5051565;28;20450;-73
2023/03/11 00:13:59;;;;;;;9.20;8.07;;;;;;;12.61;100.00;93088.25;5051471;28;20511;-73
2023/03/11 00:16:27;;;;;;;10.37;9.27;;;;;;;12.33;100.00;93074.97;5051283;28;20516;-73
2023/03/11 00:18:54;;;;;;;12.57;10.63;;;;;;;12.10;100.00;93078.56;5051689;28;20504;-73
2023/03/11 00:21:21;;;;;;;10.60;8.87;;;;;;;12.07;100.00;93075.47;5016411;28;20909;-73
2023/03/11 00:23:48;;;;;;;11.30;8.50;;;;;;;12.02;100.00;93078.66;5051339;28;20983;-74
2023/03/11 00:26:16;;;;;;;6.57;5.97;;;;;;;11.80;100.00;93076.94;5032653;28;20499;-72
2023/03/11 00:28:43;;;;;;;8.47;6.47;;;;;;;11.66;100.00;93083.81;5051393;28;20445;-73
2023/03/11 00:31:12;;;;;;;5.53;4.43;;;;;;;11.69;100.00;93087.91;5051954;28;20999;-73
2023/03/11 00:33:39;;;;;;;7.90;4.23;;;;;;;11.76;100.00;93081.72;5055274;28;20441;-73
2023/03/11 00:36:06;;;;;;;4.10;3.70;;;;;;;11.81;100.00;93069.88;5055154;28;20472;-73
2023/03/11 00:38:33;;;;;;;4.20;3.80;;;;;;;11.84;100.00;93067.69;5055136;28;20532;-73
2023/03/11 00:41:00;;;;;;;7.33;4.73;;;;;;;11.85;100.00;93064.06;5054966;28;20445;-72
2023/03/11 00:43:29;;;;;;;4.27;3.73;;;;;;;11.90;100.00;93071.44;5054963;28;20957;-72
2023/03/11 00:45:55;;;;;;;4.23;3.50;;;;;;;11.84;100.00;93048.50;5054924;28;20441;-73
2023/03/11 00:48:24;;;;;;;10.27;5.10;;;;;;;11.75;100.00;93072.22;5055054;28;20446;-73
2023/03/11 00:50:51;;;;;;;6.83;5.07;;;;;;;11.71;100.00;93076.22;5055061;28;20440;-72
2023/03/11 00:53:18;;;;;;;6.97;3.70;;;;;;;11.59;100.00;93059.28;5036046;28;20429;-73
2023/03/11 00:55:44;;;;;;;6.67;3.60;;;;;;;11.71;100.00;93063.06;5054904;28;20449;-73
2023/03/11 00:58:12;;;;;;;6.13;3.20;;;;;;;11.72;100.00;93054.19;5019616;28;20446;-74
2023/03/11 01:00:40;;;;;;;2.53;2.33;;;;;;;11.74;100.00;93046.94;5055021;28;20536;-72
2023/03/11 01:03:07;;;;;;;2.77;2.50;;;;;;;11.31;100.00;93038.06;5054794;28;20862;-73
2023/03/11 01:05:34;;;;;;;3.50;2.67;;;;;;;11.33;100.00;93036.06;5054456;28;20449;-73
2023/03/11 01:08:01;;;;;;;3.33;2.97;;;;;;;11.38;100.00;93036.34;5054645;28;20441;-74
2023/03/11 01:10:30;;;;;;;2.97;2.67;;;;;;;11.24;100.00;93026.63;5054520;28;20449;-71
2023/03/11 01:12:57;;;;;;;5.23;3.13;;;;;;;11.21;100.00;93013.06;5019185;28;20844;-72
2023/03/11 01:15:27;;;;;;;2.93;2.73;;;;;;;11.30;100.00;93015.44;5054445;28;20885;-73
2023/03/11 01:17:55;;;;;;;1.97;1.87;;;;;;;11.24;100.00;93017.94;5054377;28;20453;-74
2023/03/11 01:20:22;;;;;;;2.50;2.23;;;;;;;11.07;100.00;93006.81;5054330;28;20983;-74
2023/03/11 01:22:50;;;;;;;2.90;2.40;;;;;;;11.00;100.00;93009.34;5054593;28;20449;-73
2023/03/11 01:25:18;;;;;;;5.10;2.97;;;;;;;11.00;100.00;93004.09;5053924;28;20489;-73
2023/03/11 01:27:45;;;;;;;4.13;2.20;;;;;;;10.93;100.00;93003.16;5054135;28;20450;-73
2023/03/11 01:30:17;;;;;;;5.47;3.63;;;;;;;10.85;100.00;93000.63;5035265;28;20940;-72
2023/03/11 01:32:47;;;;;;;2.23;2.03;;;;;;;10.88;100.00;93000.25;5054030;28;20465;-73
2023/03/11 01:35:18;;;;;;;4.80;2.30;;;;;;;10.92;100.00;92992.84;5054102;28;20473;-73
2023/03/11 01:37:45;;;;;;;2.00;1.80;;;;;;;11.01;100.00;92989.97;5053605;28;20951;-73
2023/03/11 01:40:15;;;;;;;2.27;2.03;;;;;;;11.09;100.00;92996.94;5053460;28;20441;-73
2023/03/11 01:42:42;;;;;;;2.60;2.40;;;;;;;11.12;100.00;92968.53;5053295;28;20443;-72
2023/03/11 01:46:02;;;;;;;2.30;2.10;;;;;;;10.99;100.00;92949.16;5053642;28;20484;-72
2023/03/11 01:48:29;;;;;;;4.13;2.50;;;;;;;11.06;100.00;92945.63;5053184;28;20536;-72
2023/03/11 01:50:57;;;;;;;2.87;2.67;;;;;;;10.90;100.00;92942.34;5052680;28;20917;-73
2023/03/11 01:53:25;;;;;;;2.97;2.77;;;;;;;11.01;100.00;92928.81;5053277;28;20459;-73
2023/03/11 01:55:52;;;;;;;3.23;3.00;;;;;;;11.06;100.00;92935.13;5052932;28;20445;-72
2023/03/11 01:58:30;;;;;;;2.97;2.77;;;;;;;10.74;100.00;92945.97;5053277;28;20578;-72
2023/03/11 02:00:58;;;;;;;5.40;2.70;;;;;;;10.64;100.00;92953.25;5053039;28;20449;-72
2023/03/11 02:03:29;;;;;;;3.53;3.10;;;;;;;10.74;100.00;92956.47;5053112;28;20441;-72
2023/03/11 02:06:01;;;;;;;3.37;2.70;;;;;;;10.84;100.00;92978.00;5053026;28;20448;-73
2023/03/11 02:08:28;;;;;;;3.50;3.20;;;;;;;10.76;100.00;92985.94;5053150;28;20940;-74
2023/03/11 02:10:57;;;;;;;3.60;3.30;;;;;;;10.77;100.00;92987.56;5053433;28;20450;-73
2023/03/11 02:13:24;;;;;;;5.10;3.70;;;;;;;10.60;100.00;92986.88;5053228;28;20453;-72
2023/03/11 02:15:50;;;;;;;3.67;3.33;;;;;;;10.54;100.00;92998.91;5053354;28;20934;-73
2023/03/11 02:18:19;;;;;;;8.30;6.97;;;;;;;10.48;100.00;92997.00;5018309;28;21010;-72
2023/03/11 02:20:50;;;;;;;11.00;10.00;;;;;;;10.38;100.00;93009.50;5052810;28;20444;-72
2023/03/11 02:23:23;;;;;;;10.17;9.20;;;;;;;10.42;100.00;93012.63;5052522;28;20503;-73
2023/03/11 02:25:56;;;;;;;9.73;8.67;;;;;;;10.52;100.00;93021.06;5052396;28;20449;-73
2023/03/11 02:28:25;;;;;;;7.90;7.13;;;;;;;10.53;100.00;93020.88;5052263;28;21022;-74
2023/03/11 02:30:53;;;;;;;7.83;7.03;;;;;;;10.59;100.00;93023.78;5052379;28;20857;-73
2023/03/11 02:33:20;;;;;;;8.97;7.67;;;;;;;10.71;100.00;93032.88;5052611;28;20515;-73
2023/03/11 02:35:46;;;;;;;8.13;7.33;;;;;;;10.81;100.00;93025.56;5052936;28;20807;-73
2023/03/11 02:38:13;;;;;;;9.13;8.23;;;;;;;10.61;100.00;93019.19;5052259;28;20776;-73
2023/03/11 02:40:54;;;;;;;8.60;7.77;;;;;;;10.76;100.00;93022.69;5052260;28;20453;-72
2023/03/11 02:43:28;;;;;;;9.13;5.53;;;;;;;10.86;100.00;93023.22;5052262;28;20967;-73
2023/03/11 02:45:56;;;;;;;5.33;4.53;;;;;;;10.79;100.00;93024.94;5052564;28;20473;-72
2023/03/11 02:48:23;;;;;;;4.40;4.00;;;;;;;10.88;100.00;93037.00;5034168;28;20441;-72
2023/03/11 02:50:51;;;;;;;5.60;3.80;;;;;;;10.99;100.00;93033.13;5052607;28;20440;-73
2023/03/11 02:53:17;;;;;;;3.70;3.40;;;;;;;11.07;100.00;93036.50;5052756;28;20454;-70
2023/03/11 02:55:44;;;;;;;4.53;3.40;;;;;;;11.13;100.00;93041.03;5051660;28;20858;-76
2023/03/11 02:58:11;;;;;;;4.87;4.40;;;;;;;11.19;100.00;93039.50;5052387;28;20809;-73
2023/03/11 03:00:39;;;;;;;4.40;3.97;;;;;;;11.22;100.00;93044.38;5052478;28;20781;-73
2023/03/11 03:03:06;;;;;;;4.00;3.70;;;;;;;11.30;100.00;93041.69;5052379;28;20487;-74
2023/03/11 03:05:33;;;;;;;4.63;4.10;;;;;;;11.32;100.00;93039.69;5052122;28;20844;-73
2023/03/11 03:08:01;;;;;;;7.17;5.40;;;;;;;11.35;100.00;93039.34;5052421;28;20499;-73
2023/03/11 03:10:28;;;;;;;4.43;4.03;;;;;;;11.22;100.00;93038.31;5052205;28;20991;-73
2023/03/11 03:12:55;;;;;;;3.70;3.40;;;;;;;11.21;100.00;93034.88;5052157;28;20457;-72
2023/03/11 03:15:21;;;;;;;4.10;3.80;;;;;;;11.25;100.00;93040.56;5052379;28;20456;-73
2023/03/11 03:17:51;;;;;;;4.90;4.40;;;;;;;11.30;100.00;93031.19;5051768;28;20811;-74
2023/03/11 03:20:21;;;;;;;4.23;3.53;;;;;;;11.26;100.00;93024.63;5052624;28;20891;-73
2023/03/11 03:22:48;;;;;;;4.53;4.10;;;;;;;11.28;100.00;93022.69;5052694;28;20460;-74
2023/03/11 03:25:15;;;;;;;3.63;3.33;;;;;;;11.45;100.00;93029.38;5052034;28;20559;-73
2023/03/11 03:27:42;;;;;;;4.40;3.83;;;;;;;11.59;100.00;93019.88;5052204;28;20503;-73
2023/03/11 03:30:11;;;;;;;4.37;4.00;;;;;;;11.56;100.00;93022.84;5052231;28;20921;-73
2023/03/11 03:32:37;;;;;;;4.50;4.10;;;;;;;11.56;100.00;93024.66;5044942;28;20460;-74
2023/03/11 03:35:07;;;;;;;3.93;3.60;;;;;;;11.56;100.00;93019.41;5052212;28;20481;-73
2023/03/11 03:37:35;;;;;;;3.80;3.50;;;;;;;11.46;100.00;93025.75;5051582;28;20437;-73
2023/03/11 03:40:06;;;;;;;4.87;3.73;;;;;;;11.44;100.00;93029.56;5051542;28;20445;-71
2023/03/11 03:42:32;;;;;;;4.90;3.50;;;;;;;11.26;100.00;93023.81;5017388;28;20475;-73
2023/03/11 03:44:59;;;;;;;4.50;4.10;;;;;;;10.95;100.00;93016.09;5051365;28;20802;-73
2023/03/11 03:47:26;;;;;;;5.00;4.33;;;;;;;10.67;100.00;93013.22;5051387;28;20782;-73
2023/03/11 03:49:53;;;;;;;4.30;3.63;;;;;;;10.77;100.00;93009.38;5051385;28;20978;-73
2023/03/11 03:52:21;;;;;;;6.37;5.30;;;;;;;10.78;100.00;93008.38;5051444;28;20471;-73
2023/03/11 03:54:48;;;;;;;5.50;5.00;;;;;;;10.58;100.00;93007.22;5051558;28;20522;-72
2023/03/11 03:57:14;;;;;;;4.03;3.27;;;;;;;10.40;100.00;93007.53;5051804;28;20442;-73
2023/03/11 03:59:41;;;;;;;3.93;3.37;;;;;;;10.47;100.00;93016.34;5051326;28;20456;-74
2023/03/11 04:02:08;;;;;;;9.60;5.97;;;;;;;10.59;100.00;93013.28;5051118;28;20845;-73
2023/03/11 04:04:35;;;;;;;7.00;5.33;;;;;;;10.82;100.00;93014.09;5050981;28;20492;-74
2023/03/11 04:07:04;;;;;;;9.93;7.10;;;;;;;10.93;100.00;93016.28;5053549;28;20434;-74
2023/03/11 04:09:32;;;;;;;11.17;7.20;;;;;;;11.09;100.00;93013.50;5055483;28;21001;-74
2023/03/11 04:12:00;;;;;;;8.50;7.70;;;;;;;11.06;100.00;93026.19;5055220;28;20491;-73
2023/03/11 04:14:26;;;;;;;12.20;10.00;;;;;;;10.98;100.00;93020.97;5055130;28;20782;-74
2023/03/11 04:16:53;;;;;;;9.83;8.73;;;;;;;11.03;100.00;93022.09;5020104;28;20448;-74
2023/03/11 04:19:20;;;;;;;8.47;7.67;;;;;;;11.01;100.00;93026.72;5055368;28;20445;-73
2023/03/11 04:21:47;;;;;;;10.63;9.50;;;;;;;11.12;100.00;93023.66;5036293;28;20495;-73
2023/03/11 04:24:13;;;;;;;14.33;10.07;;;;;;;11.25;100.00;93035.31;5055145;28;20461;-73
2023/03/11 04:26:41;;;;;;;13.37;11.97;;;;;;;11.31;100.00;93026.75;5020219;28;20457;-73
2023/03/11 04:29:08;;;;;;;12.37;11.10;;;;;;;11.10;100.00;93035.31;5055655;28;20438;-74
2023/03/11 04:31:35;;;;;;;12.53;11.07;;;;;;;11.23;100.00;93035.50;5055701;28;20856;-71
2023/03/11 04:34:02;;;;;;;15.60;11.90;;;;;;;11.33;100.00;93041.34;5055548;28;20534;-72
2023/03/11 04:36:29;;;;;;;13.93;11.90;;;;;;;11.22;100.00;93033.88;5055643;28;20440;-72
2023/03/11 04:38:56;;;;;;;14.07;12.67;;;;;;;11.22;100.00;93035.69;5065241;28;20452;-73
2023/03/11 04:41:23;;;;;;;11.97;10.30;;;;;;;11.27;100.00;93034.16;5075336;28;20534;-74
2023/03/11 04:43:51;;;;;;;9.33;8.27;;;;;;;11.15;100.00;93030.34;5074243;28;20432;-72
2023/03/11 04:46:18;;;;;;;7.20;6.50;;;;;;;11.07;100.00;93018.13;5074537;28;20480;-72
2023/03/11 04:48:45;;;;;;;7.00;6.30;;;;;;;11.03;100.00;93022.09;5055438;28;20450;-72
2023/03/11 04:51:11;;;;;;;5.07;4.50;;;;;;;11.44;100.00;93011.16;5074819;28;20500;-75
2023/03/11 04:53:38;;;;;;;3.70;3.40;;;;;;;13.39;100.00;93018.88;5039020;28;20445;-74
2023/03/11 04:56:05;;;;;;;3.83;2.17;;;;;;;14.91;100.00;93037.13;5074771;28;20454;-79
2023/03/11 04:58:32;;;;;;;2.57;2.37;;;;;;;16.19;91.52;93033.09;5074965;28;20449;-78
2023/03/11 05:01:00;;;;;;;2.83;2.63;;;;;;;17.17;86.31;93046.88;5074410;28;20440;-76
2023/03/11 05:03:27;;;;;;;3.77;2.80;;;;;;;17.79;81.00;93061.88;5038718;28;20940;-76
2023/03/11 05:05:56;;;;;;;2.80;2.60;;;;;;;17.65;73.40;93061.19;5074105;28;20488;-71
2023/03/11 05:08:23;;;;;;;2.17;2.07;;;;;;;17.21;72.20;93056.00;5074647;28;20939;-74
2023/03/11 05:10:52;;;;;;;3.60;3.10;;;;;;;16.40;73.68;93056.66;5074558;28;20824;-74
2023/03/11 05:13:19;;;;;;;3.17;2.47;;;;;;;15.71;74.42;93058.06;5074527;28;20534;-74
2023/03/11 05:15:46;;;;;;;1.80;1.40;;;;;;;15.27;75.21;93060.50;5073998;28;20521;-73
2023/03/11 05:18:15;;;;;;;1.50;1.40;;;;;;;14.90;77.28;93061.91;4998805;28;20445;-73
2023/03/11 05:20:41;;;;;;;1.80;1.67;;;;;;;14.57;79.22;93060.81;5034512;28;20450;-73
2023/03/11 05:23:08;;;;;;;2.83;2.50;;;;;;;14.30;81.50;93064.34;5034701;28;20459;-73
2023/03/11 05:25:35;;;;;;;2.83;2.60;;;;;;;14.07;84.42;93069.13;5034171;28;20555;-73
2023/03/11 05:28:02;;;;;;;4.33;3.93;;;;;;;13.71;87.10;93064.88;5033688;28;20947;-74
2023/03/11 05:30:29;;;;;;;3.80;3.00;;;;;;;13.46;89.63;93076.88;5034725;28;21189;-74
2023/03/11 05:32:56;;;;;;;3.40;3.17;;;;;;;13.25;90.39;93067.19;5047303;28;20463;-73
2023/03/11 05:35:24;;;;;;;3.70;3.40;;;;;;;13.16;91.95;93086.75;5054343;28;20515;-74
2023/03/11 05:37:52;;;;;;;2.80;2.50;;;;;;;13.08;92.38;93078.97;5053628;28;20862;-74
2023/03/11 05:40:19;;;;;;;3.00;2.70;;;;;;;13.00;92.55;93083.34;5053893;28;20542;-74
2023/03/11 05:42:46;;;;;;;8.07;2.80;;;;;;;12.96;93.31;93083.91;5054240;28;20501;-73
2023/03/11 05:45:14;;;;;;;2.27;2.07;;;;;;;12.91;94.26;93087.13;5054445;28;20980;-72
2023/03/11 05:47:41;;;;;;;3.13;1.90;;;;;;;12.78;92.93;93078.31;5054721;28;20851;-73
2023/03/11 05:50:09;;;;;;;1.80;1.70;;;;;;;12.63;89.74;93097.56;5019459;28;20486;-74
2023/03/11 05:52:37;;;;;;;1.57;1.33;;;;;;;12.58;89.81;93093.88;4986906;28;20451;-72
2023/03/11 05:55:05;;;;;;;1.40;1.30;;;;;;;12.56;89.24;93101.16;5054439;28;20975;-74
2023/03/11 05:57:32;;;;;;;2.80;1.30;;;;;;;12.55;89.64;93100.34;5019475;28;20450;-73
2023/03/11 05:59:58;;;;;;;2.57;1.73;;;;;;;12.53;89.16;93106.78;5054090;28;20447;-74
2023/03/11 06:02:25;;;;;;;3.30;1.60;;;;;;;12.59;88.13;93112.09;5054134;28;20862;-74
2023/03/11 06:04:52;;;;;;;2.07;1.90;;;;;;;12.63;87.18;93115.19;5054249;28;20460;-73
2023/03/11 06:07:18;;;;;;;1.97;1.87;;;;;;;12.65;87.87;93119.25;5054273;28;20445;-74
2023/03/11 06:09:49;;;;;;;2.97;2.70;;;;;;;12.63;88.66;93120.44;5053746;28;20803;-74
2023/03/11 06:12:16;;;;;;;7.80;5.27;;;;;;;12.53;88.22;93125.19;5053871;28;20519;-75
2023/03/11 06:14:43;;;;;;;15.10;9.40;;;;;;;12.43;89.63;93122.03;5053800;28;20959;-73
2023/03/11 06:17:09;;;;;;;8.53;4.97;;;;;;;12.37;87.40;93120.94;5053590;28;20445;-73
2023/03/11 06:19:36;;;;;;;5.18;3.50;;;;;;;12.39;87.35;93117.13;5053265;28;20440;-73
2023/03/11 06:22:03;;;;;;;4.57;3.17;;;;;;;12.47;88.06;93120.69;5053891;28;20207;-73
2023/03/11 06:24:30;;;;;;;9.17;3.63;;;;;;;12.43;87.14;93132.53;5053663;28;20454;-73
2023/03/11 06:26:58;;;;;;;3.97;3.20;;;;;;;12.51;88.13;93125.38;5053551;28;20505;-73
2023/03/11 06:29:25;;;;;;;3.53;3.10;;;;;;;12.64;89.63;93122.06;5053703;28;20447;-72
2023/03/11 06:31:52;;;;;;;2.80;1.90;;;;;;;12.66;88.28;93117.44;5053375;28;21478;-73
2023/03/11 06:34:19;;;;;;;10.10;5.10;;;;;;;12.76;97.68;93123.22;5053197;28;21207;-73
2023/03/11 06:36:45;;;;;;;6.40;5.90;;;;;;;12.69;99.64;93122.31;5053442;28;20454;-73
2023/03/11 06:39:14;;;;;;;5.93;5.37;;;;;;;12.67;98.92;93119.06;5018386;28;20438;-72
2023/03/11 06:41:41;;;;;;;5.43;4.87;;;;;;;12.69;98.07;93124.97;5053284;28;20455;-75
2023/03/11 06:44:10;;;;;;;10.83;7.43;;;;;;;12.56;97.84;93124.81;5051360;28;20550;-74
2023/03/11 06:46:37;;;;;;;8.63;5.60;;;;;;;12.64;98.51;93122.06;5017638;28;20486;-74
2023/03/11 06:49:04;;;;;;;13.70;8.83;;;;;;;12.71;98.65;93115.06;5053059;28;20446;-72
2023/03/11 06:51:30;;;;;;;9.73;7.40;;;;;;;12.73;100.00;93113.09;5052913;28;20473;-72
2023/03/11 06:53:57;;;;;;;7.43;6.73;;;;;;;12.77;100.00;93116.16;5052854;28;20794;-73
2023/03/11 06:56:24;;;;;;;7.80;6.07;;;;;;;12.79;100.00;93112.34;5052250;28;20913;-72
2023/03/11 06:58:51;;;;;;;6.73;5.67;;;;;;;12.78;99.47;93120.41;5052362;28;20491;-73
2023/03/11 07:01:21;;;;;;;6.70;5.10;;;;;;;12.74;98.50;93117.34;5052702;28;20448;-73
2023/03/11 07:03:48;;;;;;;6.73;4.77;;;;;;;12.79;98.85;93116.78;5053152;28;20451;-72
2023/03/11 07:06:17;;;;;;;11.53;6.20;;;;;;;12.83;98.30;93124.09;5052750;28;20518;-72
2023/03/11 07:08:43;;;;;;;4.63;4.07;;;;;;;12.79;93.01;93112.34;5052548;28;20850;-71
2023/03/11 07:11:14;;;;;;;3.33;3.00;;;;;;;12.75;90.16;93128.69;5052040;28;20454;-72
2023/03/11 07:13:40;;;;;;;2.83;2.57;;;;;;;12.81;86.18;93133.19;5051828;28;20447;-72
2023/03/11 07:16:10;;;;;;;2.40;2.20;;;;;;;13.00;85.69;93135.19;5052120;28;20437;-73
2023/03/11 07:18:38;;;;;;;2.57;2.10;;;;;;;13.21;87.16;93123.88;5051771;28;21042;-71
2023/03/11 07:21:07;;;;;;;2.40;2.03;;;;;;;13.27;84.19;93121.31;5052708;28;20454;-72
2023/03/11 07:23:34;;;;;;;3.43;3.00;;;;;;;13.25;83.01;93133.03;5052273;28;20447;-72
2023/03/11 07:26:01;;;;;;;4.43;3.50;;;;;;;13.23;82.70;93116.59;5033171;28;21164;-72
2023/03/11 07:28:29;;;;;;;5.10;2.20;;;;;;;13.24;84.50;93110.34;5042826;28;20503;-71
2023/03/11 07:30:56;;;;;;;1.90;1.80;;;;;;;13.24;83.39;93107.69;5052162;28;20449;-73
2023/03/11 07:33:23;;;;;;;5.97;4.67;;;;;;;13.39;87.91;93111.09;5041438;28;21036;-72
2023/03/11 07:35:52;;;;;;;3.13;2.83;;;;;;;13.47;84.29;93100.38;5051646;28;20563;-73
2023/03/11 07:38:19;;;;;;;3.90;3.50;;;;;;;13.48;82.74;93101.22;5052089;28;20450;-72
2023/03/11 07:40:46;;;;;;;5.47;4.97;;;;;;;13.61;83.36;93096.88;5052007;28;20852;-72
2023/03/11 07:43:13;;;;;;;2.67;2.47;;;;;;;13.72;86.85;93092.06;5051753;28;20509;-73
2023/03/11 07:45:40;;;;;;;5.47;3.43;;;;;;;13.77;78.43;93087.00;5016568;28;20487;-74
2023/03/11 07:48:07;;;;;;;2.80;2.60;;;;;;;13.85;81.62;93086.84;5028600;28;20439;-73
2023/03/11 07:50:34;;;;;;;6.40;5.90;;;;;;;13.93;77.32;93092.00;5051669;28;20899;-73
2023/03/11 07:53:02;;;;;;;4.87;3.93;;;;;;;13.88;76.40;93079.38;5029332;28;20448;-73
2023/03/11 07:55:28;;;;;;;5.40;4.73;;;;;;;13.82;75.38;93079.34;5031810;28;20486;-72
2023/03/11 07:57:55;;;;;;;6.20;5.27;;;;;;;14.03;74.80;93066.06;5031750;28;20445;-73
2023/03/11 08:00:22;;;;;;;6.13;3.30;;;;;;;14.47;75.60;93067.50;5013083;28;20447;-73
2023/03/11 08:02:49;;;;;;;4.23;2.90;;;;;;;14.86;73.15;93069.41;5031569;28;20450;-73
2023/03/11 08:05:17;;;;;;;6.90;3.00;;;;;;;15.18;71.88;93066.00;5031507;28;20469;-73
2023/03/11 08:07:44;;;;;;;3.20;2.47;;;;;;;15.30;68.44;93060.91;5031328;28;20456;-73
2023/03/11 08:10:12;;;;;;;8.07;3.70;;;;;;;15.50;67.65;93067.00;5031482;28;20449;-74
2023/03/11 08:12:39;;;;;;;5.37;2.93;;;;;;;15.54;67.45;93061.31;5031539;28;20447;-73
2023/03/11 08:15:07;;;;;;;5.77;2.50;;;;;;;15.59;65.72;93038.56;5031467;28;20542;-73
2023/03/11 08:17:34;;;;;;;5.30;2.87;;;;;;;15.70;66.82;93042.41;5031567;28;20439;-73
2023/03/11 08:20:01;;;;;;;4.60;2.43;;;;;;;15.91;65.19;93031.59;5031761;28;20450;-73
2023/03/11 08:22:27;;;;;;;8.63;2.10;;;;;;;16.11;62.12;93032.31;5031701;28;20447;-74
2023/03/11 08:24:55;;;;;;;5.00;2.17;;;;;;;16.37;61.52;93027.94;5031597;28;20520;-73
2023/03/11 08:27:23;;;;;;;6.90;2.07;;;;;;;16.32;62.08;93018.00;5012728;28;20479;-73
2023/03/11 08:29:50;;;;;;;4.70;2.20;;;;;;;16.50;63.62;93025.25;5031614;28;20452;-73
2023/03/11 08:32:17;;;;;;;4.13;2.37;;;;;;;16.71;58.66;93019.66;5031383;28;20511;-73
2023/03/11 08:34:43;;;;;;;2.07;1.53;;;;;;;16.64;57.34;93018.84;5031580;28;20476;-73
2023/03/11 08:37:10;;;;;;;3.43;2.67;;;;;;;16.58;59.43;93016.25;5031656;28;20539;-73
2023/03/11 08:39:37;;;;;;;2.77;2.27;;;;;;;16.26;58.23;93004.81;5031589;28;20506;-73
2023/03/11 08:42:05;;;;;;;3.37;2.00;;;;;;;16.38;58.68;93005.75;5031438;28;20448;-73
2023/03/11 08:44:33;;;;;;;2.20;2.00;;;;;;;16.33;56.62;92995.81;5031348;28;20448;-73
2023/03/11 08:47:01;;;;;;;2.43;2.00;;;;;;;16.50;56.82;92995.31;5031109;28;20609;-74
2023/03/11 08:49:28;;;;;;;2.20;2.00;;;;;;;16.71;56.82;92987.06;5031254;28;20455;-73
2023/03/11 08:51:55;;;;;;;2.13;1.93;;;;;;;16.86;57.26;92986.75;5031719;28;20451;-74
2023/03/11 08:54:22;;;;;;;2.20;2.10;;;;;;;16.91;56.78;92985.09;5016140;28;20910;-73
2023/03/11 08:56:48;;;;;;;2.50;2.30;;;;;;;17.00;56.95;92975.84;5034875;28;20449;-73
2023/03/11 08:59:15;;;;;;;4.90;1.80;;;;;;;17.17;55.11;92978.78;5035098;28;20455;-71
2023/03/11 09:01:43;;;;;;;3.77;1.83;;;;;;;17.05;54.91;92959.28;5034626;28;20931;-74
2023/03/11 09:04:10;;;;;;;3.67;2.07;;;;;;;17.05;55.64;92969.88;5034850;28;20453;-74
2023/03/11 09:06:37;;;;;;;7.23;2.00;;;;;;;17.06;57.33;92966.22;5016210;28;20875;-73
2023/03/11 09:09:04;;;;;;;2.97;1.90;;;;;;;17.14;57.78;92962.50;5034624;28;20448;-74
2023/03/11 09:11:31;;;;;;;2.67;2.20;;;;;;;17.08;58.26;92963.38;5034518;28;20504;-73
2023/03/11 09:13:58;;;;;;;3.10;1.83;;;;;;;17.01;57.01;92966.03;5034501;28;20456;-73
2023/03/11 09:16:25;;;;;;;3.13;1.90;;;;;;;17.03;56.35;92964.00;5034267;28;20477;-72
2023/03/11 09:18:53;;;;;;;1.60;1.50;;;;;;;16.98;55.95;92953.22;5034460;28;20537;-72
2023/03/11 09:21:20;;;;;;;1.60;1.50;;;;;;;16.70;56.60;92957.09;5034297;28;20460;-74
2023/03/11 09:23:48;;;;;;;2.13;1.93;;;;;;;16.19;58.06;92949.25;5034173;28;20498;-73
2023/03/11 09:26:15;;;;;;;2.80;2.20;;;;;;;15.97;59.32;92961.97;5034504;28;20488;-72
2023/03/11 09:28:45;;;;;;;5.63;2.40;;;;;;;15.98;60.08;92947.72;5033989;28;20449;-73
2023/03/11 09:31:13;;;;;;;2.00;1.90;;;;;;;15.97;59.55;92948.75;5034411;28;20449;-72
2023/03/11 09:33:41;;;;;;;2.27;2.00;;;;;;;15.94;60.21;92943.06;5034280;28;20456;-71
2023/03/11 09:36:13;;;;;;;2.67;2.20;;;;;;;15.79;61.77;92932.75;5034328;28;20460;-73
2023/03/11 09:38:40;;;;;;;5.33;2.40;;;;;;;15.62;61.07;92927.13;5034572;28;20483;-73
2023/03/11 09:41:10;;;;;;;3.50;2.00;;;;;;;15.67;60.64;92932.59;5034533;28;20814;-72
2023/03/11 09:43:55;;;;;;;2.57;2.37;;;;;;;15.88;62.79;92941.25;5034651;28;20459;-74
2023/03/11 09:46:38;;;;;;;5.37;2.13;;;;;;;16.02;60.14;92930.41;5043729;28;20477;-72
2023/03/11 09:49:15;;;;;;;6.40;1.87;;;;;;;16.30;58.45;92926.59;5054667;28;20441;-72
2023/03/11 09:51:49;;;;;;;6.27;2.00;;;;;;;16.53;58.13;92932.16;5043495;28;20444;-73
2023/03/11 09:54:18;;;;;;;2.30;2.10;;;;;;;16.62;57.25;92938.81;5049638;28;20504;-73
2023/03/11 09:56:44;;;;;;;3.20;1.90;;;;;;;16.80;59.88;92930.16;5053993;28;20519;-73
2023/03/11 09:59:19;;;;;;;3.17;2.20;;;;;;;17.06;60.68;92938.88;5019041;28;20452;-72
2023/03/11 10:01:49;;;;;;;6.70;2.63;;;;;;;17.15;58.75;92929.66;5035070;28;21023;-72
2023/03/11 10:04:21;;;;;;;2.17;1.90;;;;;;;17.11;56.68;92926.63;5052914;28;20529;-74
2023/03/11 10:06:50;;;;;;;3.00;2.70;;;;;;;17.19;57.31;92939.59;5052665;28;20544;-73
2023/03/11 10:09:35;;;;;;;3.87;2.13;;;;;;;17.22;54.87;92947.13;5019364;28;20453;-74
2023/03/11 10:12:23;;;;;;;1.87;1.77;;;;;;;17.33;53.75;92950.88;5054124;28;20449;-72
2023/03/11 10:15:08;;;;;;;2.27;2.07;;;;;;;17.40;54.53;92948.19;4992203;28;20448;-74
2023/03/11 10:17:51;;;;;;;4.80;2.70;;;;;;;17.49;53.74;92949.53;4992231;28;20448;-74
2023/03/11 10:20:23;;;;;;;3.03;1.50;;;;;;;17.47;51.70;92943.63;4944138;28;20455;-75
2023/03/11 10:23:02;;;;;;;4.13;2.80;;;;;;;17.42;52.29;92959.38;4960335;28;20591;-75
2023/03/11 10:25:40;;;;;;;4.70;2.10;;;;;;;17.36;53.22;92949.66;4992179;28;20530;-74
2023/03/11 10:28:12;;;;;;;3.73;1.80;;;;;;;17.39;53.41;92959.81;4992124;28;21022;-75
2023/03/11 10:30:45;;;;;;;3.23;1.53;;;;;;;17.41;53.27;92952.47;4943497;28;20498;-75
2023/03/11 10:33:21;;;;;;;3.93;1.90;;;;;;;17.55;54.76;92956.59;4991729;28;20449;-74
2023/03/11 10:35:51;;;;;;;4.20;2.70;;;;;;;17.61;52.91;92953.06;4991705;28;20491;-74
2023/03/11 10:38:23;;;;;;;1.93;1.73;;;;;;;17.55;51.90;92954.75;4991957;28;20448;-74
2023/03/11 10:40:53;;;;;;;5.43;2.13;;;;;;;17.53;52.89;92951.50;4960236;28;20821;-75
2023/03/11 10:43:26;;;;;;;6.73;1.80;;;;;;;17.53;53.01;92940.09;4994646;28;20791;-74
2023/03/11 10:45:54;;;;;;;2.90;1.63;;;;;;;17.57;52.12;92957.19;4991900;28;20500;-75
2023/03/11 10:48:22;;;;;;;2.50;1.90;;;;;;;17.52;53.77;92943.78;4990579;28;20492;-73
2023/03/11 10:50:57;;;;;;;1.73;1.60;;;;;;;17.25;53.03;92944.03;4991787;28;20453;-74
2023/03/11 10:53:25;;;;;;;3.73;1.90;;;;;;;17.15;52.45;92945.56;5053492;28;20483;-73
2023/03/11 10:55:54;;;;;;;1.50;1.40;;;;;;;16.87;52.97;92949.47;5018154;28;20446;-74
2023/03/11 10:58:23;;;;;;;2.37;1.80;;;;;;;16.84;54.90;92944.59;5053180;28;20437;-74
2023/03/11 11:01:02;;;;;;;4.00;2.27;;;;;;;16.77;52.95;92959.72;5053354;28;20533;-74
2023/03/11 11:03:29;;;;;;;2.30;2.10;;;;;;;16.61;54.82;92960.22;5053462;28;20444;-75
2023/03/11 11:06:02;;;;;;;1.67;1.40;;;;;;;16.30;57.91;92980.34;5042210;28;20449;-73
2023/03/11 11:08:30;;;;;;;2.47;2.00;;;;;;;15.64;63.36;92982.44;5032623;28;20488;-74
2023/03/11 11:10:59;;;;;;;2.47;2.27;;;;;;;15.10;68.59;92988.78;5013821;28;20454;-72
2023/03/11 11:13:28;;;;;;;2.77;2.50;;;;;;;14.80;69.52;92975.16;5033304;28;20453;-73
2023/03/11 11:15:58;;;;;;;2.23;1.87;;;;;;;14.77;71.60;92971.09;5032300;28;20454;-76
2023/03/11 11:18:28;;;;;;;5.70;2.90;;;;;;;14.81;73.68;92966.22;5014544;28;20508;-72
2023/03/11 11:21:02;;;;;;;2.27;1.90;;;;;;;15.00;73.77;92972.50;5032694;28;20934;-72
2023/03/11 11:23:36;;;;;;;5.90;4.47;;;;;;;15.11;73.23;92964.81;5013833;28;20452;-72
2023/03/11 11:26:06;;;;;;;5.83;4.30;;;;;;;15.25;73.99;92968.22;5032480;28;20457;-72
2023/03/11 11:28:34;;;;;;;11.90;5.00;;;;;;;15.32;71.09;92955.81;5031742;28;20491;-72
2023/03/11 11:31:03;;;;;;;4.70;4.17;;;;;;;15.34;68.15;92945.06;5031659;28;20446;-73
2023/03/11 11:33:32;;;;;;;3.40;3.03;;;;;;;15.36;68.77;92949.13;5013320;28;20533;-72
2023/03/11 11:36:02;;;;;;;4.53;2.40;;;;;;;15.36;68.20;92943.84;5032322;28;20459;-72